createdAt,value
2023-02-11T00:02:47.893Z,0.44
2023-02-11T00:07:50.179Z,0.41
2023-02-11T00:12:52.204Z,0.32
2023-02-11T00:17:54.305Z,0.30
2023-02-11T00:22:56.419Z,0.28
2023-02-11T00:27:59.113Z,0.25
2023-02-11T00:33:01.202Z,0.07
2023-02-11T00:38:03.214Z,-0.03
2023-02-11T00:43:06.693Z,-0.19
2023-02-11T00:48:08.714Z,-0.33
2023-02-11T00:53:11.101Z,-0.36
2023-02-11T00:58:13.939Z,-0.45
2023-02-11T01:03:17.635Z,-0.47
2023-02-11T01:08:19.977Z,-0.55
2023-02-11T01:13:22.801Z,-0.61
2023-02-11T01:18:25.684Z,-0.71
2023-02-11T01:23:27.721Z,-0.78
2023-02-11T01:28:31.200Z,-0.68
2023-02-11T01:33:35.310Z,-0.84
2023-02-11T01:38:38.118Z,-0.80
2023-02-11T01:43:47.480Z,-0.87
2023-02-11T01:49:20.444Z,-0.83
2023-02-11T01:54:48.298Z,-0.97
2023-02-11T02:00:06.179Z,-0.93
2023-02-11T02:05:42.438Z,-0.96
2023-02-11T02:10:47.236Z,-1.02
2023-02-11T02:15:59.614Z,-0.80
2023-02-11T02:21:20.462Z,-0.58
2023-02-11T02:27:00.698Z,-0.55
2023-02-11T02:32:36.605Z,-0.35
2023-02-11T02:38:04.353Z,-0.17
2023-02-11T02:43:09.569Z,-0.21
2023-02-11T02:48:29.968Z,-0.04
2023-02-11T02:53:55.151Z,-0.02
2023-02-11T02:59:17.361Z,-0.07
2023-02-11T03:04:29.850Z,0.00
2023-02-11T03:09:55.991Z,0.06
2023-02-11T03:14:59.898Z,0.05
2023-02-11T03:20:04.440Z,-0.11
2023-02-11T03:25:07.288Z,-0.23
2023-02-11T03:30:41.795Z,-0.25
2023-02-11T03:35:54.241Z,-0.41
2023-02-11T03:40:58.022Z,-0.57
2023-02-11T03:46:01.779Z,-0.64
2023-02-11T03:51:07.352Z,-0.66
2023-02-11T03:56:14.850Z,-0.62
2023-02-11T04:01:17.281Z,-0.69
2023-02-11T04:06:19.304Z,-0.71
2023-02-11T04:11:21.317Z,-0.68
2023-02-11T04:16:23.538Z,-0.71
2023-02-11T04:21:25.640Z,-0.83
2023-02-11T04:26:27.676Z,-0.92
2023-02-11T04:31:29.769Z,-1.12
2023-02-11T04:36:31.887Z,-1.18
2023-02-11T04:41:34.242Z,-1.30
2023-02-11T04:46:36.242Z,-1.37
2023-02-11T04:51:38.462Z,-1.42
2023-02-11T04:56:40.488Z,-1.52
2023-02-11T05:01:43.091Z,-1.55
2023-02-11T05:06:45.151Z,-1.55
2023-02-11T05:11:47.237Z,-1.50
2023-02-11T05:16:49.338Z,-1.64
2023-02-11T05:22:02.119Z,-1.58
2023-02-11T05:27:04.904Z,-1.66
2023-02-11T05:32:09.061Z,-1.35
2023-02-11T05:37:11.115Z,-1.23
2023-02-11T05:42:14.136Z,-1.05
2023-02-11T05:47:16.107Z,-0.95
2023-02-11T05:52:18.088Z,-0.92
2023-02-11T05:57:20.212Z,-0.74
2023-02-11T06:02:23.218Z,-0.67
2023-02-11T06:07:25.289Z,-0.70
2023-02-11T06:12:27.377Z,-0.50
2023-02-11T06:17:33.718Z,-0.48
2023-02-11T06:22:35.799Z,-0.45
2023-02-11T06:27:38.376Z,-0.44
2023-02-11T06:32:44.509Z,-0.42
2023-02-11T06:37:48.102Z,-0.38
2023-02-11T06:42:50.179Z,-0.27
2023-02-11T06:47:54.014Z,-0.26
2023-02-11T06:52:56.006Z,0.05
2023-02-11T06:57:58.053Z,0.13
2023-02-11T07:03:01.109Z,0.41
2023-02-11T07:08:03.201Z,0.78
2023-02-11T07:13:05.393Z,0.92
2023-02-11T07:18:07.483Z,0.95
2023-02-11T07:23:09.670Z,1.70
2023-02-11T07:28:11.984Z,2.48
2023-02-11T07:33:14.009Z,4.09
2023-02-11T07:38:16.038Z,5.79
2023-02-11T07:43:17.878Z,7.28
2023-02-11T07:48:19.865Z,6.50
2023-02-11T07:53:21.931Z,6.60
2023-02-11T07:58:23.939Z,7.10
2023-02-11T08:03:25.808Z,7.32
2023-02-11T08:08:28.131Z,7.45
2023-02-11T08:13:30.227Z,8.27
2023-02-11T08:18:33.456Z,7.80
2023-02-11T08:23:40.269Z,6.10
2023-02-11T08:28:44.013Z,6.25
2023-02-11T08:33:46.336Z,6.46
2023-02-11T08:38:48.401Z,5.49
2023-02-11T08:43:50.426Z,4.53
2023-02-11T08:48:52.953Z,3.78
2023-02-11T08:53:55.499Z,3.21
2023-02-11T08:58:57.713Z,2.53
2023-02-11T09:03:59.853Z,1.95
2023-02-11T09:09:01.891Z,1.73
2023-02-11T09:14:04.732Z,1.57
2023-02-11T09:19:06.804Z,1.58
2023-02-11T09:24:08.961Z,1.66
2023-02-11T09:29:11.201Z,1.60
2023-02-11T09:34:13.522Z,1.36
2023-02-11T09:39:20.604Z,1.23
2023-02-11T09:44:26.445Z,1.14
2023-02-11T09:49:44.106Z,1.12
2023-02-11T09:54:55.751Z,0.92
2023-02-11T09:59:58.107Z,0.74
2023-02-11T10:05:35.494Z,0.80
2023-02-11T10:11:04.350Z,0.72
2023-02-11T10:16:17.171Z,0.69
2023-02-11T10:21:41.666Z,0.65
2023-02-11T10:26:45.684Z,0.51
2023-02-11T10:31:49.995Z,0.43
2023-02-11T10:36:52.069Z,0.37
2023-02-11T10:42:03.228Z,0.55
2023-02-11T10:47:22.868Z,0.57
2023-02-11T10:52:27.257Z,0.48
2023-02-11T10:57:31.889Z,0.58
2023-02-11T11:02:38.887Z,0.73
2023-02-11T11:07:59.461Z,0.84
2023-02-11T11:13:01.747Z,0.80
2023-02-11T11:18:23.020Z,0.93
2023-02-11T11:23:26.132Z,0.91
2023-02-11T11:28:31.649Z,0.95
2023-02-11T11:33:35.890Z,0.99
2023-02-11T11:38:45.918Z,1.13
2023-02-11T11:44:15.533Z,1.33
2023-02-11T11:49:43.634Z,1.29
2023-02-11T11:54:56.405Z,1.35
2023-02-11T11:59:58.733Z,1.15
2023-02-11T12:05:29.928Z,1.04
2023-02-11T12:10:37.723Z,0.99
2023-02-11T12:16:14.463Z,0.85
2023-02-11T12:21:33.478Z,0.81
2023-02-11T12:26:59.998Z,1.08
2023-02-11T12:32:14.238Z,1.08
2023-02-11T12:37:21.181Z,0.95
2023-02-11T12:42:50.663Z,0.94
2023-02-11T12:48:05.695Z,0.86
2023-02-11T12:53:22.940Z,0.78
2023-02-11T12:58:44.187Z,0.55
2023-02-11T13:04:00.298Z,0.41
2023-02-11T13:09:06.367Z,0.30
2023-02-11T13:14:38.001Z,0.27
2023-02-11T13:19:53.446Z,0.29
2023-02-11T13:25:07.496Z,0.23
2023-02-11T13:30:28.188Z,0.19
2023-02-11T13:35:37.816Z,0.22
2023-02-11T13:40:40.211Z,0.11
2023-02-11T13:45:45.211Z,0.02
2023-02-11T13:50:51.875Z,-0.13
2023-02-11T13:56:07.955Z,-0.10
2023-02-11T14:01:10.086Z,-0.20
2023-02-11T14:06:32.441Z,-0.25
2023-02-11T14:11:35.329Z,-0.32
2023-02-11T14:17:02.713Z,-0.24
2023-02-11T14:22:12.028Z,-0.27
2023-02-11T14:27:24.048Z,-0.29
2023-02-11T14:33:02.970Z,-0.29
2023-02-11T14:38:31.885Z,-0.37
2023-02-11T14:43:46.995Z,-0.43
2023-02-11T14:48:52.404Z,-0.45
2023-02-11T14:54:17.231Z,-0.35
2023-02-11T14:59:21.707Z,-0.37
2023-02-11T15:04:32.950Z,-0.26
2023-02-11T15:09:43.153Z,-0.27
2023-02-11T15:14:51.074Z,-0.32
2023-02-11T15:19:56.980Z,-0.30
2023-02-11T15:25:04.201Z,-0.32
2023-02-11T15:30:23.830Z,-0.13
2023-02-11T15:35:35.251Z,-0.18
2023-02-11T15:40:37.831Z,-0.23
2023-02-11T15:45:43.731Z,-0.23
2023-02-11T15:50:56.049Z,-0.15
2023-02-11T15:56:01.450Z,-0.14
2023-02-11T16:01:03.880Z,-0.19
2023-02-11T16:06:15.896Z,-0.35
2023-02-11T16:11:36.270Z,-0.12
2023-02-11T16:16:38.443Z,-0.15
2023-02-11T16:21:45.434Z,-0.09
2023-02-11T16:26:50.784Z,-0.10
2023-02-11T16:31:55.168Z,-0.23
2023-02-11T16:36:57.256Z,-0.20
2023-02-11T16:41:59.811Z,-0.08
2023-02-11T16:47:03.768Z,-0.13
2023-02-11T16:52:08.566Z,-0.14
2023-02-11T16:57:22.719Z,-0.09
2023-02-11T17:02:31.327Z,-0.11
2023-02-11T17:07:33.727Z,-0.10
2023-02-11T17:12:35.712Z,-0.15
2023-02-11T17:17:37.905Z,-0.15
2023-02-11T17:22:40.267Z,-0.03
2023-02-11T17:27:42.377Z,-0.09
2023-02-11T17:32:44.549Z,0.06
2023-02-11T17:37:46.636Z,0.08
2023-02-11T17:42:48.714Z,0.12
2023-02-11T17:47:50.745Z,-0.12
2023-02-11T17:52:52.818Z,0.03
2023-02-11T17:57:55.625Z,0.14
2023-02-11T18:03:06.419Z,0.10
2023-02-11T18:08:08.625Z,0.13
2023-02-11T18:13:10.657Z,0.14
2023-02-11T18:18:12.780Z,0.26
2023-02-11T18:23:14.841Z,0.36
2023-02-11T18:28:16.906Z,0.32
2023-02-11T18:33:18.910Z,0.37
2023-02-11T18:38:22.405Z,0.29
2023-02-11T18:43:24.748Z,0.38
2023-02-11T18:48:27.565Z,0.45
2023-02-11T18:53:29.618Z,0.44
2023-02-11T18:58:31.629Z,0.50
2023-02-11T19:03:33.665Z,0.50
2023-02-11T19:08:35.862Z,0.56
2023-02-11T19:13:38.237Z,0.54
2023-02-11T19:18:40.525Z,0.61
2023-02-11T19:23:42.568Z,0.55
2023-02-11T19:28:45.000Z,0.56
2023-02-11T19:33:47.381Z,0.61
2023-02-11T19:38:49.410Z,0.66
2023-02-11T19:43:53.087Z,0.76
2023-02-11T19:48:55.631Z,0.75
2023-02-11T19:53:58.837Z,0.83
2023-02-11T19:59:02.930Z,0.87
2023-02-11T20:04:05.831Z,0.86
2023-02-11T20:09:11.927Z,0.90
2023-02-11T20:14:15.404Z,0.89
2023-02-11T20:19:20.196Z,0.96
2023-02-11T20:24:23.413Z,0.94
2023-02-11T20:29:26.062Z,0.93
2023-02-11T20:34:28.175Z,0.96
2023-02-11T20:39:30.273Z,0.99
2023-02-11T20:44:32.320Z,1.05
2023-02-11T20:49:34.327Z,1.11
2023-02-11T20:54:36.323Z,1.06
2023-02-11T20:59:38.480Z,1.05
2023-02-11T21:04:40.646Z,1.10
2023-02-11T21:09:42.781Z,1.13
2023-02-11T21:14:44.817Z,1.13
2023-02-11T21:19:47.007Z,1.12
2023-02-11T21:24:49.204Z,1.11
2023-02-11T21:29:54.548Z,1.18
2023-02-11T21:34:56.963Z,1.23
2023-02-11T21:39:59.064Z,1.19
2023-02-11T21:45:01.140Z,1.23
2023-02-11T21:50:03.815Z,1.26
2023-02-11T21:55:06.697Z,1.30
2023-02-11T22:00:09.805Z,1.33
2023-02-11T22:05:11.871Z,1.33
2023-02-11T22:10:14.439Z,1.36
2023-02-11T22:15:16.720Z,1.37
2023-02-11T22:20:18.900Z,1.36
2023-02-11T22:25:21.001Z,1.37
2023-02-11T22:30:23.053Z,1.42
2023-02-11T22:35:25.143Z,1.46
2023-02-11T22:40:27.184Z,1.50
2023-02-11T22:45:29.306Z,1.49
2023-02-11T22:50:31.503Z,1.51
2023-02-11T22:55:38.182Z,1.60
2023-02-11T23:00:41.554Z,1.62
2023-02-11T23:05:43.674Z,1.58
2023-02-11T23:10:46.461Z,1.57
2023-02-11T23:15:48.514Z,1.53
2023-02-11T23:20:50.618Z,1.52
2023-02-11T23:25:52.898Z,1.53
2023-02-11T23:30:55.667Z,1.57
2023-02-11T23:35:57.717Z,1.60
2023-02-11T23:40:59.757Z,1.67
2023-02-11T23:46:01.909Z,1.71
2023-02-11T23:51:04.517Z,1.75
2023-02-11T23:56:13.530Z,1.84
